Time;durP1;ratioP1;P1;durP2;ratioP2;P2;SDS_P1;SDS_P2;PMS_P1;PMS_P2;Temp;Humidity;BMP_temperature;BMP_pressure;BME280_temperature;BME280_humidity;BME280_pressure;Samples;Min_cycle;Max_cycle;Signal;HPM_P1;HPM_P2
2021/08/14 00:01:08;;;;;;;25.13;7.78;;;14.80;99.90;;;;;;6214498;22;20061;-87
2021/08/14 00:03:33;;;;;;;19.30;8.05;;;14.80;99.90;;;;;;6163120;22;20035;-87
2021/08/14 00:05:59;;;;;;;22.92;7.50;;;14.70;99.90;;;;;;6188286;22;20054;-87
2021/08/14 00:08:25;;;;;;;19.30;6.70;;;14.80;99.90;;;;;;6189445;22;20386;-86
2021/08/14 00:10:51;;;;;;;17.00;7.38;;;14.70;99.90;;;;;;6190940;22;20061;-87
2021/08/14 00:13:17;;;;;;;22.63;7.85;;;14.80;99.90;;;;;;6188932;22;20059;-87
2021/08/14 00:15:43;;;;;;;24.50;7.45;;;14.80;99.90;;;;;;6216228;22;20340;-86
2021/08/14 00:18:09;;;;;;;21.23;7.95;;;14.80;99.90;;;;;;6190362;22;20007;-87
2021/08/14 00:20:35;;;;;;;22.63;7.43;;;14.80;99.90;;;;;;6213865;22;20336;-86
2021/08/14 00:23:01;;;;;;;24.13;7.07;;;14.80;99.90;;;;;;6190194;22;20018;-87
2021/08/14 00:25:28;;;;;;;21.83;7.30;;;14.80;99.90;;;;;;6214931;22;20011;-86
2021/08/14 00:27:54;;;;;;;25.95;7.32;;;14.70;99.90;;;;;;6187793;22;20012;-86
2021/08/14 00:30:20;;;;;;;26.45;7.28;;;14.70;99.90;;;;;;6216719;22;20015;-86
2021/08/14 00:32:46;;;;;;;23.35;7.65;;;14.70;99.90;;;;;;6240138;22;20023;-87
2021/08/14 00:35:12;;;;;;;19.77;7.25;;;14.70;99.90;;;;;;6214602;22;20004;-87
2021/08/14 00:37:38;;;;;;;22.83;7.55;;;14.70;99.90;;;;;;6214930;22;20480;-86
2021/08/14 00:40:05;;;;;;;23.23;8.02;;;14.70;99.90;;;;;;6214975;22;20077;-86
2021/08/14 00:42:31;;;;;;;22.85;7.60;;;14.70;99.90;;;;;;6214293;22;20015;-85
2021/08/14 00:44:58;;;;;;;28.33;8.25;;;14.70;99.90;;;;;;6189461;22;20058;-86
2021/08/14 00:47:27;;;;;;;23.48;8.20;;;14.70;99.90;;;;;;6238975;22;20012;-87
2021/08/14 00:49:54;;;;;;;23.35;8.30;;;14.70;99.90;;;;;;6186736;22;20020;-86
2021/08/14 00:52:21;;;;;;;17.40;7.45;;;14.70;99.90;;;;;;6216312;22;20026;-86
2021/08/14 00:54:47;;;;;;;23.50;7.72;;;14.70;99.90;;;;;;6190298;22;20341;-86
2021/08/14 00:57:19;;;;;;;23.85;7.35;;;14.70;99.90;;;;;;6213643;22;20012;-86
2021/08/14 00:59:46;;;;;;;18.58;7.57;;;14.70;99.90;;;;;;6191338;22;20023;-87
2021/08/14 01:02:15;;;;;;;24.38;8.35;;;14.70;99.90;;;;;;6213036;22;20007;-87
2021/08/14 01:04:40;;;;;;;16.80;7.20;;;14.70;99.90;;;;;;6239739;22;20073;-85
2021/08/14 01:07:06;;;;;;;17.42;7.13;;;14.70;99.90;;;;;;6212509;22;20481;-85
2021/08/14 01:09:32;;;;;;;23.67;7.03;;;14.70;99.90;;;;;;6188157;22;20407;-87
2021/08/14 01:12:01;;;;;;;21.30;6.90;;;14.80;99.90;;;;;;6214859;22;20469;-86
2021/08/14 01:14:31;;;;;;;20.90;7.25;;;14.80;99.90;;;;;;6213622;22;20073;-87
2021/08/14 01:16:58;;;;;;;25.08;7.35;;;14.80;99.90;;;;;;6214063;22;20014;-86
2021/08/14 01:19:24;;;;;;;14.30;6.70;;;14.80;99.90;;;;;;6239259;22;20094;-85
2021/08/14 01:21:51;;;;;;;19.33;6.82;;;14.80;99.90;;;;;;6189093;22;20022;-86
2021/08/14 01:24:20;;;;;;;18.95;7.18;;;14.80;99.90;;;;;;6215100;22;20020;-85
2021/08/14 01:26:46;;;;;;;27.77;7.53;;;14.80;99.90;;;;;;6214863;22;20051;-85
2021/08/14 01:29:12;;;;;;;22.13;7.00;;;14.80;99.90;;;;;;6188645;22;20490;-85
2021/08/14 01:31:39;;;;;;;20.40;6.45;;;14.80;99.90;;;;;;6238599;22;20018;-85
2021/08/14 01:34:05;;;;;;;25.45;7.32;;;14.80;99.90;;;;;;6212888;22;20015;-86
2021/08/14 01:36:31;;;;;;;21.77;7.05;;;14.80;99.90;;;;;;6213528;22;20022;-86
2021/08/14 01:38:59;;;;;;;20.58;6.45;;;14.80;99.90;;;;;;6215779;22;20042;-86
2021/08/14 01:41:25;;;;;;;23.67;7.65;;;14.80;99.90;;;;;;6238470;22;20011;-86
2021/08/14 01:44:16;;;;;;;20.70;6.70;;;14.90;99.90;;;;;;6264613;22;20007;-86
2021/08/14 01:46:42;;;;;;;16.25;6.70;;;14.90;99.90;;;;;;6265529;22;20019;-87
2021/08/14 01:49:08;;;;;;;18.85;6.82;;;14.80;99.90;;;;;;6187868;22;20046;-86
2021/08/14 01:51:35;;;;;;;22.50;7.00;;;14.80;99.90;;;;;;6214242;22;20265;-86
2021/08/14 01:54:04;;;;;;;20.63;6.78;;;14.80;99.90;;;;;;6190233;22;20328;-86
2021/08/14 01:56:31;;;;;;;25.75;7.88;;;14.80;99.90;;;;;;6238244;22;20015;-86
2021/08/14 01:58:57;;;;;;;19.35;7.10;;;14.80;99.90;;;;;;6187996;22;20452;-86
2021/08/14 02:01:23;;;;;;;18.55;6.55;;;14.80;99.90;;;;;;6212171;22;20019;-87
2021/08/14 02:03:49;;;;;;;22.83;7.32;;;14.70;99.90;;;;;;6188451;22;20014;-86
2021/08/14 02:06:19;;;;;;;22.98;7.03;;;14.70;99.90;;;;;;6190200;22;20016;-85
2021/08/14 02:08:45;;;;;;;18.48;6.78;;;14.70;99.90;;;;;;6238050;22;20077;-87
2021/08/14 02:11:14;;;;;;;20.00;7.80;;;14.70;99.90;;;;;;6214184;22;20345;-86
2021/08/14 02:13:42;;;;;;;19.60;6.75;;;14.70;99.90;;;;;;6235848;22;20479;-86
2021/08/14 02:16:09;;;;;;;24.73;7.55;;;14.70;99.90;;;;;;6188868;22;20452;-86
2021/08/14 02:18:35;;;;;;;19.42;6.95;;;14.70;99.90;;;;;;6213208;22;20352;-87
2021/08/14 02:21:01;;;;;;;22.90;7.82;;;14.70;99.90;;;;;;6214231;22;20098;-87
2021/08/14 02:23:28;;;;;;;23.00;8.20;;;14.70;99.90;;;;;;6265387;22;20030;-86
2021/08/14 02:25:54;;;;;;;24.13;7.78;;;14.70;99.90;;;;;;6213586;22;20018;-86
2021/08/14 02:28:19;;;;;;;21.02;7.07;;;14.80;99.90;;;;;;6213381;22;20011;-86
2021/08/14 02:30:45;;;;;;;25.48;7.18;;;14.70;99.90;;;;;;6162862;22;20459;-86
2021/08/14 02:33:11;;;;;;;22.23;8.43;;;14.70;99.90;;;;;;6187650;22;20018;-86
2021/08/14 02:35:37;;;;;;;24.27;8.18;;;14.70;99.90;;;;;;6214026;22;20333;-87
2021/08/14 02:38:06;;;;;;;27.98;8.35;;;14.70;99.90;;;;;;6213242;22;20012;-87
2021/08/14 02:40:34;;;;;;;26.60;7.85;;;14.80;99.90;;;;;;6188557;22;20081;-87
2021/08/14 02:43:01;;;;;;;23.67;7.90;;;14.70;99.90;;;;;;6187870;22;20500;-87
2021/08/14 02:45:27;;;;;;;26.65;7.80;;;14.70;99.90;;;;;;6214066;22;20032;-86
2021/08/14 02:47:55;;;;;;;22.38;7.80;;;14.70;99.90;;;;;;6185551;22;20014;-86
2021/08/14 02:50:23;;;;;;;27.17;8.07;;;14.70;99.90;;;;;;6164459;22;20026;-87
2021/08/14 02:52:50;;;;;;;23.58;7.15;;;14.80;99.90;;;;;;6236958;22;20263;-86
2021/08/14 02:55:16;;;;;;;24.38;8.20;;;14.80;99.90;;;;;;6188009;22;20024;-86
2021/08/14 02:57:42;;;;;;;23.98;7.53;;;14.80;99.90;;;;;;6263942;22;20406;-86
2021/08/14 03:00:21;;;;;;;25.30;7.82;;;14.80;99.90;;;;;;6215337;22;20011;-86
2021/08/14 03:02:49;;;;;;;24.92;7.90;;;14.80;99.90;;;;;;6213953;22;20186;-87
2021/08/14 03:05:15;;;;;;;18.40;7.30;;;14.80;99.90;;;;;;6189209;22;20531;-86
2021/08/14 03:07:44;;;;;;;22.30;8.13;;;14.80;99.90;;;;;;6186536;22;20031;-87
2021/08/14 03:10:10;;;;;;;23.30;7.38;;;14.80;99.90;;;;;;6239178;22;20016;-87
2021/08/14 03:12:36;;;;;;;24.85;8.00;;;14.80;99.90;;;;;;6238259;22;20008;-87
2021/08/14 03:15:07;;;;;;;23.65;7.60;;;14.80;99.90;;;;;;6266346;22;20034;-87
2021/08/14 03:17:34;;;;;;;23.35;7.85;;;14.80;99.90;;;;;;6212565;22;20086;-86
2021/08/14 03:20:04;;;;;;;23.80;7.25;;;14.80;99.90;;;;;;6238908;22;20099;-86
2021/08/14 03:22:34;;;;;;;21.23;8.10;;;14.80;99.90;;;;;;6188412;22;20011;-87
2021/08/14 03:25:00;;;;;;;25.52;8.52;;;14.80;99.90;;;;;;6214126;22;20064;-86
2021/08/14 03:27:26;;;;;;;25.00;8.35;;;14.80;99.90;;;;;;6213179;22;20008;-87
2021/08/14 03:29:51;;;;;;;27.55;8.00;;;14.80;99.90;;;;;;6187676;22;20031;-87
2021/08/14 03:32:18;;;;;;;27.58;7.82;;;14.80;99.90;;;;;;6188462;22;20008;-87
2021/08/14 03:34:44;;;;;;;26.88;8.60;;;14.80;99.90;;;;;;6214465;22;20301;-87
2021/08/14 03:37:10;;;;;;;30.73;8.35;;;14.80;99.90;;;;;;6188703;22;20065;-86
2021/08/14 03:39:42;;;;;;;20.33;8.05;;;14.70;99.90;;;;;;6188884;22;20665;-86
2021/08/14 03:42:07;;;;;;;25.08;8.40;;;14.80;99.90;;;;;;6166073;22;20019;-87
2021/08/14 03:44:34;;;;;;;27.52;8.57;;;14.80;99.90;;;;;;6188341;22;20011;-87
2021/08/14 03:47:00;;;;;;;24.13;8.18;;;14.80;99.90;;;;;;6191009;22;20012;-86
2021/08/14 03:49:26;;;;;;;25.48;8.02;;;14.80;99.90;;;;;;6189770;22;20051;-86
2021/08/14 03:51:52;;;;;;;24.15;8.07;;;14.80;99.90;;;;;;6215023;22;20675;-86
2021/08/14 03:54:21;;;;;;;24.20;8.85;;;14.80;99.90;;;;;;6216684;22;20019;-86
2021/08/14 03:56:46;;;;;;;22.63;8.48;;;14.80;99.90;;;;;;6191021;22;20019;-86
2021/08/14 03:59:12;;;;;;;28.85;8.18;;;14.80;99.90;;;;;;6213787;22;20012;-86
2021/08/14 04:01:39;;;;;;;27.23;8.23;;;14.80;99.90;;;;;;6188403;22;20340;-86
2021/08/14 04:04:05;;;;;;;27.45;8.02;;;14.80;99.90;;;;;;6162321;22;20181;-87
2021/08/14 04:06:38;;;;;;;23.75;7.97;;;14.80;99.90;;;;;;6241503;22;20891;-86
2021/08/14 04:09:04;;;;;;;28.90;8.70;;;14.90;99.90;;;;;;6215540;22;20484;-86
2021/08/14 04:11:30;;;;;;;24.50;8.77;;;14.80;99.90;;;;;;6215398;22;20014;-86
2021/08/14 04:13:56;;;;;;;24.10;7.95;;;14.80;99.90;;;;;;6216796;22;20022;-85
2021/08/14 04:16:22;;;;;;;25.38;8.75;;;14.80;99.90;;;;;;6217559;22;20463;-86
2021/08/14 04:18:48;;;;;;;28.70;8.82;;;14.80;99.90;;;;;;6241373;22;20007;-87
2021/08/14 04:21:14;;;;;;;24.65;8.43;;;14.80;99.90;;;;;;6165024;22;20631;-87
2021/08/14 04:23:40;;;;;;;27.38;8.70;;;14.80;99.90;;;;;;6249201;22;20014;-85
2021/08/14 04:26:06;;;;;;;27.40;8.90;;;14.80;99.90;;;;;;6216502;22;20008;-87
2021/08/14 04:28:32;;;;;;;22.02;8.68;;;14.80;99.90;;;;;;6190303;22;20057;-88
2021/08/14 04:30:58;;;;;;;28.30;8.50;;;14.80;99.90;;;;;;6215605;22;20090;-87
2021/08/14 04:33:24;;;;;;;21.75;8.52;;;14.80;99.90;;;;;;6192541;22;20252;-87
2021/08/14 04:35:50;;;;;;;30.75;9.25;;;14.80;99.90;;;;;;6165500;22;20047;-87
2021/08/14 04:38:16;;;;;;;35.30;8.57;;;14.80;99.90;;;;;;6165686;22;20019;-86
2021/08/14 04:40:42;;;;;;;27.23;8.68;;;14.80;99.90;;;;;;6191260;22;20066;-87
2021/08/14 04:43:08;;;;;;;29.55;9.15;;;14.90;99.90;;;;;;6215178;22;20008;-86
2021/08/14 04:45:35;;;;;;;24.33;8.35;;;14.80;99.90;;;;;;6215544;22;20015;-87
2021/08/14 04:48:04;;;;;;;28.55;9.00;;;14.80;99.90;;;;;;6213255;22;20452;-86
2021/08/14 04:50:30;;;;;;;26.67;9.20;;;14.90;99.90;;;;;;6186713;22;20069;-86
2021/08/14 04:52:55;;;;;;;24.83;8.52;;;14.90;99.90;;;;;;6165412;22;20016;-87
2021/08/14 04:55:21;;;;;;;30.58;9.27;;;14.90;99.90;;;;;;6216841;22;20445;-86
2021/08/14 04:57:47;;;;;;;22.27;9.13;;;14.90;99.90;;;;;;6190334;22;20441;-86
2021/08/14 05:00:13;;;;;;;24.83;8.90;;;14.90;99.90;;;;;;6214422;22;20441;-87
2021/08/14 05:02:45;;;;;;;27.03;9.40;;;14.90;99.90;;;;;;6194146;22;20028;-86
2021/08/14 05:05:11;;;;;;;29.20;8.82;;;14.90;99.90;;;;;;6211886;22;20268;-86
2021/08/14 05:07:37;;;;;;;31.55;9.52;;;14.90;99.90;;;;;;6190564;22;20336;-87
2021/08/14 05:10:04;;;;;;;27.48;9.07;;;14.90;99.90;;;;;;6214825;22;20028;-87
2021/08/14 05:12:30;;;;;;;30.85;8.93;;;14.90;99.90;;;;;;6240384;22;20061;-86
2021/08/14 05:14:58;;;;;;;24.92;9.48;;;14.90;99.90;;;;;;6189543;22;20073;-85
2021/08/14 05:17:25;;;;;;;24.05;8.55;;;15.00;99.90;;;;;;6216264;22;20015;-86
2021/08/14 05:19:51;;;;;;;23.35;9.00;;;15.00;99.90;;;;;;6240160;22;20061;-85
2021/08/14 05:22:17;;;;;;;31.45;9.00;;;15.00;99.90;;;;;;6217378;22;20016;-86
2021/08/14 05:24:42;;;;;;;29.13;9.00;;;15.00;99.90;;;;;;6168678;22;20011;-88
2021/08/14 05:27:08;;;;;;;30.02;9.85;;;15.10;99.90;;;;;;6215263;22;20012;-87
2021/08/14 05:29:35;;;;;;;36.10;10.20;;;15.10;99.90;;;;;;6212584;22;20022;-85
2021/08/14 05:32:02;;;;;;;32.65;9.38;;;15.10;99.90;;;;;;6265372;22;20019;-86
2021/08/14 05:34:27;;;;;;;30.67;9.07;;;15.20;99.90;;;;;;6241132;22;20023;-85
2021/08/14 05:36:53;;;;;;;30.63;10.02;;;15.20;99.90;;;;;;6191051;22;20012;-86
2021/08/14 05:39:19;;;;;;;30.00;9.60;;;15.20;99.90;;;;;;6164265;22;20215;-88
2021/08/14 05:41:48;;;;;;;26.02;9.55;;;15.20;99.90;;;;;;6189217;22;20020;-87
2021/08/14 05:44:19;;;;;;;32.63;9.57;;;15.30;99.90;;;;;;6169099;22;20225;-85
2021/08/14 05:46:45;;;;;;;31.58;9.57;;;15.30;99.90;;;;;;6215642;22;20015;-85
2021/08/14 05:49:11;;;;;;;34.88;10.15;;;15.40;99.90;;;;;;6213372;22;20083;-87
2021/08/14 05:51:37;;;;;;;31.85;10.38;;;15.40;99.90;;;;;;6186492;22;20111;-86
2021/08/14 05:54:03;;;;;;;32.08;10.63;;;15.40;99.90;;;;;;6212285;22;20043;-86
2021/08/14 05:56:29;;;;;;;30.65;11.85;;;15.50;99.90;;;;;;6214332;22;20448;-87
2021/08/14 05:58:55;;;;;;;32.40;9.85;;;15.50;99.90;;;;;;6186114;22;20029;-88
2021/08/14 06:01:21;;;;;;;31.23;10.05;;;15.60;99.90;;;;;;6164000;22;20012;-88
2021/08/14 06:03:47;;;;;;;29.40;9.50;;;15.60;99.90;;;;;;6212900;22;20022;-86
2021/08/14 06:06:16;;;;;;;30.60;9.82;;;15.70;99.90;;;;;;6163760;22;20344;-87
2021/08/14 06:08:45;;;;;;;28.48;10.13;;;15.70;99.90;;;;;;6210713;22;20023;-86
2021/08/14 06:11:11;;;;;;;29.13;10.32;;;15.80;99.90;;;;;;6215379;22;20015;-87
2021/08/14 06:13:37;;;;;;;35.58;11.45;;;15.90;99.90;;;;;;6239771;22;20015;-87
2021/08/14 06:16:04;;;;;;;34.95;11.18;;;15.90;99.90;;;;;;6184240;22;20008;-88
2021/08/14 06:18:30;;;;;;;29.58;11.05;;;16.00;99.90;;;;;;6183402;22;20222;-87
2021/08/14 06:20:56;;;;;;;32.58;11.63;;;16.10;99.90;;;;;;6174148;22;20016;-88
2021/08/14 06:23:22;;;;;;;36.45;11.07;;;16.10;99.90;;;;;;6201946;22;20026;-88
2021/08/14 06:25:48;;;;;;;34.92;11.35;;;16.20;99.90;;;;;;6209232;22;20251;-88
2021/08/14 06:28:15;;;;;;;36.10;11.52;;;16.30;99.90;;;;;;6204930;22;20023;-86
2021/08/14 06:30:44;;;;;;;36.30;11.43;;;16.30;99.90;;;;;;6207276;22;20461;-88
2021/08/14 06:33:10;;;;;;;36.20;11.30;;;16.40;99.90;;;;;;6179214;22;20008;-87
2021/08/14 06:35:39;;;;;;;34.25;12.35;;;16.40;99.90;;;;;;6159305;22;20641;-87
2021/08/14 06:38:05;;;;;;;32.40;11.80;;;16.50;99.90;;;;;;6183459;22;20068;-88
2021/08/14 06:40:31;;;;;;;35.67;11.23;;;16.60;99.90;;;;;;6182348;22;20040;-86
2021/08/14 06:42:57;;;;;;;33.85;11.38;;;16.60;99.90;;;;;;6183521;22;20015;-87
2021/08/14 06:45:23;;;;;;;39.42;11.35;;;16.80;99.90;;;;;;6225999;22;20016;-86
2021/08/14 06:47:52;;;;;;;32.25;12.55;;;16.90;99.90;;;;;;6236109;22;20022;-88
2021/08/14 06:50:18;;;;;;;41.22;11.98;;;17.00;99.90;;;;;;6212453;22;20157;-88
2021/08/14 06:52:45;;;;;;;37.60;12.45;;;17.10;99.90;;;;;;6161670;22;20030;-89
2021/08/14 06:55:12;;;;;;;42.33;12.38;;;17.20;99.90;;;;;;6188900;22;20218;-87
2021/08/14 06:57:38;;;;;;;36.20;12.48;;;17.30;99.90;;;;;;6210064;22;20026;-87
2021/08/14 07:00:05;;;;;;;29.80;11.80;;;17.30;99.90;;;;;;6213742;22;20083;-88
2021/08/14 07:02:41;;;;;;;38.60;12.27;;;17.30;99.90;;;;;;6227446;22;20015;-90
2021/08/14 07:05:08;;;;;;;38.13;11.93;;;17.30;99.90;;;;;;6240634;22;20031;-85
2021/08/14 07:07:34;;;;;;;44.40;13.60;;;17.30;99.90;;;;;;6189576;22;20014;-89
2021/08/14 07:10:06;;;;;;;37.78;12.80;;;17.30;99.90;;;;;;6190305;22;20012;-88
2021/08/14 07:12:32;;;;;;;38.45;12.48;;;17.30;99.90;;;;;;6216577;22;20089;-88
2021/08/14 07:14:59;;;;;;;37.83;12.45;;;17.40;99.90;;;;;;6216174;22;20452;-87
2021/08/14 07:17:26;;;;;;;36.78;11.77;;;17.40;99.90;;;;;;6241177;22;20083;-88
2021/08/14 07:19:55;;;;;;;43.35;12.70;;;17.40;99.90;;;;;;6219358;22;20090;-87
2021/08/14 07:22:23;;;;;;;34.28;12.68;;;17.40;99.90;;;;;;6216910;22;20336;-89
2021/08/14 07:24:49;;;;;;;41.67;12.75;;;17.50;99.90;;;;;;6269740;22;20038;-88
2021/08/14 07:27:15;;;;;;;33.85;12.27;;;17.50;99.90;;;;;;6214977;22;20024;-87
2021/08/14 07:29:41;;;;;;;34.10;12.63;;;17.70;99.90;;;;;;6217557;22;20023;-86
2021/08/14 07:32:07;;;;;;;32.85;11.95;;;17.80;99.90;;;;;;6191304;22;20012;-87
2021/08/14 07:34:33;;;;;;;34.80;11.73;;;17.90;99.90;;;;;;6217239;22;20011;-86
2021/08/14 07:36:58;;;;;;;42.70;11.75;;;18.10;99.90;;;;;;6214952;22;20011;-87
2021/08/14 07:39:24;;;;;;;37.15;11.68;;;18.20;99.90;;;;;;6191565;22;20043;-88
2021/08/14 07:41:50;;;;;;;38.28;12.00;;;18.30;99.90;;;;;;6218014;22;20015;-87
2021/08/14 07:44:16;;;;;;;31.10;11.10;;;18.40;99.90;;;;;;6219452;22;20011;-86
2021/08/14 07:46:42;;;;;;;40.33;11.50;;;18.40;99.90;;;;;;6216770;22;20012;-88
2021/08/14 07:49:08;;;;;;;32.88;10.57;;;18.40;99.90;;;;;;6215170;22;20092;-87
2021/08/14 07:51:34;;;;;;;30.23;10.73;;;18.50;99.90;;;;;;6217507;22;20012;-87
2021/08/14 07:53:59;;;;;;;30.63;10.88;;;18.60;99.90;;;;;;6216683;22;20011;-87
2021/08/14 07:56:25;;;;;;;33.08;9.77;;;18.70;99.90;;;;;;6193045;22;20023;-89
2021/08/14 07:58:51;;;;;;;26.17;9.43;;;18.90;99.90;;;;;;6192413;22;20463;-87
2021/08/14 08:01:17;;;;;;;34.22;10.05;;;19.00;99.90;;;;;;6192429;22;20011;-87
2021/08/14 08:03:46;;;;;;;32.95;9.95;;;19.10;99.90;;;;;;6216706;22;20270;-88
2021/08/14 08:06:12;;;;;;;33.15;9.30;;;19.10;99.90;;;;;;6169125;22;20015;-85
2021/08/14 08:08:38;;;;;;;25.42;9.30;;;19.10;99.90;;;;;;6241863;22;20007;-86
2021/08/14 08:11:04;;;;;;;28.23;8.82;;;19.10;99.60;;;;;;6242026;22;20011;-89
2021/08/14 08:13:32;;;;;;;28.25;9.70;;;19.10;99.60;;;;;;6241942;22;20019;-86
2021/08/14 08:15:58;;;;;;;29.60;8.95;;;19.10;99.50;;;;;;6191574;22;20007;-88
2021/08/14 08:18:24;;;;;;;29.05;8.75;;;19.10;99.60;;;;;;6216355;22;20336;-86
2021/08/14 08:20:50;;;;;;;26.52;9.00;;;19.20;99.60;;;;;;6217230;22;20401;-87
2021/08/14 08:23:27;;;;;;;28.85;8.65;;;19.20;99.50;;;;;;6215673;22;20329;-88
2021/08/14 08:25:56;;;;;;;29.08;7.85;;;19.20;99.70;;;;;;6191181;22;20090;-88
2021/08/14 08:28:23;;;;;;;27.27;7.35;;;19.30;99.50;;;;;;6190612;22;20012;-88
2021/08/14 08:30:50;;;;;;;30.13;7.53;;;19.40;99.30;;;;;;6215778;22;20019;-88
2021/08/14 08:33:16;;;;;;;25.35;7.50;;;19.50;99.10;;;;;;6239826;22;20403;-90
2021/08/14 08:35:42;;;;;;;27.80;7.32;;;19.60;98.70;;;;;;6214250;22;20065;-87
2021/08/14 08:38:08;;;;;;;20.00;6.45;;;19.70;98.60;;;;;;6191411;22;20360;-86
2021/08/14 08:40:38;;;;;;;22.25;5.82;;;19.70;98.20;;;;;;6214998;22;20015;-88
2021/08/14 08:43:04;;;;;;;19.92;6.50;;;19.70;97.90;;;;;;6240477;22;20046;-89
2021/08/14 08:45:34;;;;;;;23.40;6.45;;;19.70;97.60;;;;;;6214357;22;20019;-86
2021/08/14 08:48:04;;;;;;;19.23;5.78;;;19.80;97.20;;;;;;6215728;22;20023;-87
2021/08/14 08:50:30;;;;;;;16.25;4.82;;;19.80;96.80;;;;;;6216204;22;20015;-91
2021/08/14 08:52:56;;;;;;;21.35;6.40;;;19.80;96.50;;;;;;6216097;22;20015;-85
2021/08/14 08:55:23;;;;;;;20.42;6.25;;;19.90;96.40;;;;;;6187472;22;20045;-88
2021/08/14 08:57:50;;;;;;;23.38;6.38;;;19.80;96.40;;;;;;6212475;22;20039;-88
2021/08/14 09:00:17;;;;;;;22.77;6.13;;;19.80;96.80;;;;;;6266940;22;20467;-89
2021/08/14 09:03:04;;;;;;;20.40;6.43;;;19.80;96.60;;;;;;6215369;22;20008;-87
2021/08/14 09:05:30;;;;;;;22.45;6.82;;;19.90;96.80;;;;;;6215037;22;20012;-90
2021/08/14 09:08:10;;;;;;;20.40;5.50;;;19.90;97.00;;;;;;6215868;22;20394;-89
2021/08/14 09:10:37;;;;;;;20.30;6.07;;;20.10;97.00;;;;;;6241764;22;20087;-89
2021/08/14 09:13:29;;;;;;;17.75;5.47;;;20.20;96.40;;;;;;6242018;22;20085;-88
2021/08/14 09:15:55;;;;;;;17.58;5.03;;;20.20;96.30;;;;;;6210249;22;20018;-90
2021/08/14 09:18:21;;;;;;;15.30;4.57;;;20.30;96.00;;;;;;6191896;22;20015;-87
2021/08/14 09:20:54;;;;;;;18.10;4.97;;;20.40;95.60;;;;;;6214772;22;20065;-92
2021/08/14 09:23:24;;;;;;;20.40;5.00;;;20.50;95.40;;;;;;6221946;22;20034;-87
2021/08/14 09:25:56;;;;;;;17.50;4.82;;;20.60;94.90;;;;;;6194710;22;20065;-91
2021/08/14 09:28:29;;;;;;;18.20;5.03;;;20.60;94.70;;;;;;6212833;22;20501;-86
2021/08/14 09:31:03;;;;;;;15.50;4.90;;;20.60;94.60;;;;;;6239414;22;20391;-88
2021/08/14 09:33:34;;;;;;;21.60;5.60;;;20.50;94.50;;;;;;6252155;22;20077;-89
2021/08/14 09:36:12;;;;;;;15.90;5.27;;;20.50;94.70;;;;;;6221136;22;20035;-90
2021/08/14 09:38:49;;;;;;;19.65;5.57;;;20.50;94.90;;;;;;6245399;22;20073;-90
2021/08/14 09:41:24;;;;;;;18.65;5.25;;;20.50;95.00;;;;;;6245935;22;20015;-89
2021/08/14 09:43:52;;;;;;;16.25;4.45;;;20.50;94.80;;;;;;6251190;22;20023;-89
2021/08/14 09:46:19;;;;;;;15.25;4.57;;;20.50;94.50;;;;;;6217831;22;20015;-88
2021/08/14 09:48:55;;;;;;;16.75;5.45;;;20.60;94.50;;;;;;6241687;22;20086;-88
2021/08/14 09:51:33;;;;;;;18.73;5.13;;;20.60;94.40;;;;;;6218012;22;20008;-88
2021/08/14 09:54:00;;;;;;;17.30;5.13;;;20.70;94.80;;;;;;6271923;22;20009;-92
2021/08/14 09:56:31;;;;;;;17.98;4.90;;;20.80;94.40;;;;;;6195466;22;20019;-90
2021/08/14 09:59:05;;;;;;;16.98;5.65;;;20.80;94.10;;;;;;6232810;22;20014;-90
2021/08/14 10:01:35;;;;;;;17.25;5.40;;;20.80;93.80;;;;;;6230780;22;20097;-88
2021/08/14 10:04:02;;;;;;;21.35;5.35;;;20.80;94.00;;;;;;6245357;22;20018;-91
2021/08/14 10:06:37;;;;;;;19.88;4.93;;;20.70;93.90;;;;;;6193783;22;20035;-90
2021/08/14 10:09:04;;;;;;;14.75;4.97;;;20.70;94.20;;;;;;6220026;22;20077;-89
2021/08/14 10:11:30;;;;;;;19.08;5.13;;;20.70;94.10;;;;;;6219969;22;20186;-90
2021/08/14 10:13:56;;;;;;;13.35;4.93;;;20.70;94.20;;;;;;6193690;22;20094;-89
2021/08/14 10:16:23;;;;;;;19.58;5.13;;;20.70;94.10;;;;;;6223186;22;20011;-90
2021/08/14 10:18:49;;;;;;;20.73;5.60;;;20.60;94.00;;;;;;6192330;22;20007;-91
2021/08/14 10:21:15;;;;;;;24.27;6.22;;;20.60;94.10;;;;;;6220233;22;20022;-88
2021/08/14 10:23:50;;;;;;;21.00;5.43;;;20.50;93.90;;;;;;6249446;22;20039;-88
2021/08/14 10:26:17;;;;;;;20.40;6.03;;;20.50;94.00;;;;;;6246674;22;20012;-86
2021/08/14 10:28:54;;;;;;;19.65;5.82;;;20.40;94.00;;;;;;6198184;22;20008;-86
2021/08/14 10:31:29;;;;;;;18.30;6.05;;;20.40;94.10;;;;;;6196554;22;20341;-90
2021/08/14 10:33:56;;;;;;;23.63;6.75;;;20.40;94.00;;;;;;6221634;22;20022;-87
2021/08/14 10:36:22;;;;;;;13.43;5.32;;;20.40;94.00;;;;;;6199551;22;20465;-90
2021/08/14 10:38:50;;;;;;;15.88;5.32;;;20.40;94.00;;;;;;6221676;22;20081;-87
2021/08/14 10:41:17;;;;;;;21.65;5.55;;;20.40;94.20;;;;;;6171359;22;20065;-86
2021/08/14 10:43:53;;;;;;;23.17;6.00;;;20.50;94.10;;;;;;6173778;22;20036;-91
2021/08/14 10:46:35;;;;;;;23.30;6.10;;;20.50;94.10;;;;;;6245966;22;20015;-87
2021/08/14 10:49:01;;;;;;;21.92;6.03;;;20.60;93.90;;;;;;6220899;22;20455;-90
2021/08/14 10:51:50;;;;;;;15.80;6.00;;;20.70;93.70;;;;;;6170589;22;20046;-88
2021/08/14 10:54:29;;;;;;;20.55;5.80;;;20.90;93.60;;;;;;6245049;22;20030;-87
2021/08/14 10:57:01;;;;;;;19.95;5.93;;;20.90;93.30;;;;;;6244679;22;20407;-89
2021/08/14 10:59:39;;;;;;;17.08;6.28;;;20.90;92.50;;;;;;6272337;22;20015;-87
2021/08/14 11:02:09;;;;;;;15.85;5.68;;;20.90;92.40;;;;;;6218908;22;20019;-91
2021/08/14 11:04:54;;;;;;;19.85;5.95;;;20.90;92.70;;;;;;6218572;22;20008;-88
2021/08/14 11:07:20;;;;;;;22.05;5.75;;;20.80;92.90;;;;;;6283693;22;20101;-88
2021/08/14 11:09:52;;;;;;;23.13;6.03;;;20.80;93.20;;;;;;6246425;22;20070;-87
2021/08/14 11:12:50;;;;;;;18.48;5.60;;;20.70;93.30;;;;;;6217862;22;20027;-92
2021/08/14 11:15:29;;;;;;;21.05;6.30;;;20.70;93.70;;;;;;6194573;22;20023;-90
2021/08/14 11:18:02;;;;;;;20.13;6.35;;;20.60;93.70;;;;;;6242425;22;20406;-87
2021/08/14 11:20:39;;;;;;;26.02;7.00;;;20.50;94.10;;;;;;6196831;22;20034;-89
2021/08/14 11:23:29;;;;;;;20.83;6.63;;;20.50;94.30;;;;;;6219445;22;20026;-90
2021/08/14 11:25:56;;;;;;;21.95;6.50;;;20.40;94.60;;;;;;6210731;22;20499;-89
2021/08/14 11:28:26;;;;;;;17.55;6.38;;;20.40;94.70;;;;;;6171323;22;20019;-87
2021/08/14 11:31:08;;;;;;;24.35;7.28;;;20.40;94.90;;;;;;6199765;22;20523;-90
2021/08/14 11:33:34;;;;;;;22.70;7.35;;;20.50;94.90;;;;;;6247058;22;20193;-89
2021/08/14 11:36:10;;;;;;;22.58;7.32;;;20.70;94.80;;;;;;6194945;22;20037;-90
2021/08/14 11:38:42;;;;;;;25.38;7.18;;;20.80;94.60;;;;;;6221897;22;20503;-90
2021/08/14 11:41:16;;;;;;;26.75;8.27;;;21.00;94.40;;;;;;6196618;22;20016;-85
2021/08/14 11:43:43;;;;;;;25.42;7.78;;;21.10;94.30;;;;;;6212596;22;20050;-90
2021/08/14 11:46:09;;;;;;;22.40;8.60;;;21.20;94.10;;;;;;6269636;22;20026;-91
2021/08/14 11:48:40;;;;;;;20.08;7.72;;;21.20;93.80;;;;;;6254491;22;20469;-90
2021/08/14 11:51:35;;;;;;;27.08;8.20;;;21.20;93.80;;;;;;6250967;22;20015;-88
2021/08/14 11:54:13;;;;;;;22.80;8.13;;;21.20;93.50;;;;;;6219518;22;20047;-90
2021/08/14 11:56:48;;;;;;;22.45;8.23;;;21.20;93.20;;;;;;6203758;22;20020;-88
2021/08/14 11:59:29;;;;;;;23.80;8.68;;;21.10;93.10;;;;;;6170389;22;20022;-86
2021/08/14 12:01:54;;;;;;;24.63;9.30;;;21.10;93.20;;;;;;6261478;22;20012;-88
2021/08/14 12:04:21;;;;;;;23.60;7.25;;;21.20;93.40;;;;;;6171583;22;20057;-88
2021/08/14 12:06:55;;;;;;;28.25;7.95;;;21.20;93.30;;;;;;6168376;22;20479;-89
2021/08/14 12:09:21;;;;;;;22.83;8.32;;;21.20;93.40;;;;;;6240704;22;20722;-89
2021/08/14 12:11:58;;;;;;;22.38;8.63;;;21.30;93.30;;;;;;6195769;22;20340;-88
2021/08/14 12:14:25;;;;;;;26.95;8.52;;;21.30;93.60;;;;;;6250995;22;20011;-86
2021/08/14 12:17:12;;;;;;;26.50;8.57;;;21.30;93.60;;;;;;6198130;22;20372;-88
2021/08/14 12:19:56;;;;;;;27.90;8.95;;;21.40;93.80;;;;;;6223486;22;20012;-87
2021/08/14 12:22:32;;;;;;;23.05;8.48;;;21.50;93.60;;;;;;6219941;22;20091;-89
2021/08/14 12:25:23;;;;;;;32.65;9.07;;;21.60;93.50;;;;;;6220798;22;20015;-91
2021/08/14 12:27:50;;;;;;;26.37;10.00;;;21.80;93.60;;;;;;6244428;22;20032;-89
2021/08/14 12:30:35;;;;;;;;;;;;;;;;;;;;;
2021/08/14 12:33:40;;;;;;;22.65;7.15;;;22.00;92.40;;;;;;6251048;22;20026;-89
2021/08/14 12:36:06;;;;;;;21.17;7.07;;;22.10;92.00;;;;;;6218907;22;20035;-90
2021/08/14 12:38:54;;;;;;;21.35;6.85;;;22.20;91.20;;;;;;6246498;22;20016;-89
2021/08/14 12:41:40;;;;;;;17.38;6.50;;;22.30;90.90;;;;;;6244383;22;20467;-90
2021/08/14 12:44:11;;;;;;;19.88;8.05;;;22.30;90.60;;;;;;6242494;22;20042;-87